< Typhoon 197503 1975 Season Typhoon 197505 >
Typhoon 197504 (ORA)
General InformationTrack Information on Google Maps || Disaster Info.ResourceGoogle EarthGE AnimationAtom FeedGeoJSON
Detalied Best Track (Time Zone = UTC)
Year Month Day Hour Lat. Long. Pressure (hPa) Wind (kt) Class Image Chart
1975 8 9 00 19.0 127.5 998 0 2 -- Chart
1975 8 9 06 19.6 127.1 998 0 2 -- Chart
1975 8 9 12 20.3 126.5 998 0 2 -- Chart
1975 8 9 18 20.9 126.1 996 0 2 -- Chart
1975 8 10 00 21.4 125.5 985 0 9 -- Chart
1975 8 10 06 21.7 125.1 985 0 9 -- Chart
1975 8 10 12 22.1 124.7 985 0 9 -- Chart
1975 8 10 18 22.8 124.7 980 0 9 -- Chart
1975 8 11 00 23.9 125.1 975 0 9 -- Chart
1975 8 11 06 24.8 125.3 970 0 9 -- Chart
1975 8 11 12 26.0 125.0 970 0 9 -- Chart
1975 8 11 18 27.0 124.2 980 0 9 -- Chart
1975 8 12 00 27.5 123.0 980 0 9 -- Chart
1975 8 12 06 28.3 121.5 980 0 9 -- Chart
1975 8 12 12 28.9 120.5 980 0 9 -- Chart
1975 8 12 18 29.3 119.0 986 0 9 -- Chart
1975 8 13 00 29.0 117.4 992 0 2 -- Chart
1975 8 13 06 29.2 116.6 994 0 2 -- Chart
1975 8 13 12 29.3 116.2 994 0 2 -- Chart
1975 8 13 18 29.2 115.4 994 0 2 -- Chart
1975 8 14 00 29.3 114.9 994 0 2 -- Chart
1975 8 14 06 29.4 114.6 994 0 2 -- Chart
1975 8 14 12 29.3 114.2 994 0 2 -- Chart
1975 8 14 18 29.2 114.0 994 0 2 -- Chart
1975 8 15 00 29.1 115.0 994 0 2 -- Chart
1975 8 15 06 28.0 116.0 992 0 2 -- Chart
1975 8 15 12 28.3 116.5 996 0 2 -- Chart
1975 8 15 18 28.6 116.8 996 0 2 -- Chart
1975 8 16 00 28.9 117.1 998 0 6 -- Chart
1975 8 16 06 29.2 117.2 996 0 6 -- Chart
1975 8 16 12 30.0 118.0 998 0 6 -- Chart
1975 8 16 18 31.0 118.0 1000 0 6 -- Chart
1975 8 17 00 30.0 119.0 998 0 6 -- Chart
1975 8 17 06 30.0 119.0 998 0 6 -- Chart
1975 8 17 12 30.0 119.0 1000 0 6 -- Chart
Japan Meteorological Agency Best Track Data | Correction Date : 1989-06-01
< Typhoon 197503 1975 Season Typhoon 197505 >

Help